sensor_id;sensor_type;location;lat;lon;timestamp;temperature;humidity
66598;DHT22;57424;53.128;6.406;2022-10-22T00:02:06;21.60;64.90
66598;DHT22;57424;53.128;6.406;2022-10-22T00:04:32;21.60;64.80
66598;DHT22;57424;53.128;6.406;2022-10-22T00:06:58;21.50;64.80
66598;DHT22;57424;53.128;6.406;2022-10-22T00:09:24;21.60;64.80
66598;DHT22;57424;53.128;6.406;2022-10-22T00:11:50;21.60;64.80
66598;DHT22;57424;53.128;6.406;2022-10-22T00:14:15;21.60;64.80
66598;DHT22;57424;53.128;6.406;2022-10-22T00:16:41;21.60;64.70
66598;DHT22;57424;53.128;6.406;2022-10-22T00:19:07;21.60;64.80
66598;DHT22;57424;53.128;6.406;2022-10-22T00:21:34;21.60;64.70
66598;DHT22;57424;53.128;6.406;2022-10-22T00:23:59;21.60;64.80
66598;DHT22;57424;53.128;6.406;2022-10-22T00:26:25;21.60;64.70
66598;DHT22;57424;53.128;6.406;2022-10-22T00:28:51;21.60;64.70
66598;DHT22;57424;53.128;6.406;2022-10-22T00:31:17;21.60;64.70
66598;DHT22;57424;53.128;6.406;2022-10-22T00:33:45;21.60;64.70
66598;DHT22;57424;53.128;6.406;2022-10-22T00:36:11;21.60;64.70
66598;DHT22;57424;53.128;6.406;2022-10-22T00:38:37;21.60;64.70
66598;DHT22;57424;53.128;6.406;2022-10-22T00:41:02;21.60;64.70
66598;DHT22;57424;53.128;6.406;2022-10-22T00:43:28;21.60;64.60
66598;DHT22;57424;53.128;6.406;2022-10-22T00:45:53;21.60;64.60
66598;DHT22;57424;53.128;6.406;2022-10-22T00:48:23;21.60;64.60
66598;DHT22;57424;53.128;6.406;2022-10-22T00:50:54;21.60;64.60
66598;DHT22;57424;53.128;6.406;2022-10-22T00:53:28;21.70;64.60
66598;DHT22;57424;53.128;6.406;2022-10-22T00:55:54;21.60;65.20
66598;DHT22;57424;53.128;6.406;2022-10-22T00:58:25;21.60;64.50
66598;DHT22;57424;53.128;6.406;2022-10-22T01:00:51;21.60;64.60
66598;DHT22;57424;53.128;6.406;2022-10-22T01:03:18;21.60;64.50
66598;DHT22;57424;53.128;6.406;2022-10-22T01:06:04;21.60;64.50
66598;DHT22;57424;53.128;6.406;2022-10-22T01:11:18;21.60;64.40
66598;DHT22;57424;53.128;6.406;2022-10-22T01:13:54;21.60;64.40
66598;DHT22;57424;53.128;6.406;2022-10-22T01:22:31;21.60;64.50
66598;DHT22;57424;53.128;6.406;2022-10-22T01:28:04;21.60;64.40
66598;DHT22;57424;53.128;6.406;2022-10-22T01:30:35;21.60;64.40
66598;DHT22;57424;53.128;6.406;2022-10-22T01:33:05;21.60;64.40
66598;DHT22;57424;53.128;6.406;2022-10-22T01:35:36;21.60;64.40
66598;DHT22;57424;53.128;6.406;2022-10-22T01:38:04;21.60;64.40
66598;DHT22;57424;53.128;6.406;2022-10-22T01:40:31;21.60;64.40
66598;DHT22;57424;53.128;6.406;2022-10-22T01:43:00;21.60;64.40
66598;DHT22;57424;53.128;6.406;2022-10-22T01:45:28;21.50;64.40
66598;DHT22;57424;53.128;6.406;2022-10-22T01:51:02;21.50;64.40
66598;DHT22;57424;53.128;6.406;2022-10-22T02:04:47;21.60;64.40
66598;DHT22;57424;53.128;6.406;2022-10-22T02:07:17;21.50;64.30
66598;DHT22;57424;53.128;6.406;2022-10-22T02:09:43;21.50;64.40
66598;DHT22;57424;53.128;6.406;2022-10-22T02:12:10;21.50;64.30
66598;DHT22;57424;53.128;6.406;2022-10-22T02:14:40;21.50;64.40
66598;DHT22;57424;53.128;6.406;2022-10-22T02:17:10;21.50;64.30
66598;DHT22;57424;53.128;6.406;2022-10-22T02:19:53;21.50;64.20
66598;DHT22;57424;53.128;6.406;2022-10-22T02:22:20;21.50;64.20
66598;DHT22;57424;53.128;6.406;2022-10-22T02:24:46;21.50;64.20
66598;DHT22;57424;53.128;6.406;2022-10-22T02:30:04;21.50;64.10
66598;DHT22;57424;53.128;6.406;2022-10-22T02:32:54;21.50;64.20
66598;DHT22;57424;53.128;6.406;2022-10-22T02:35:21;21.50;64.20
66598;DHT22;57424;53.128;6.406;2022-10-22T02:37:48;21.50;64.20
66598;DHT22;57424;53.128;6.406;2022-10-22T02:40:14;21.50;64.10
66598;DHT22;57424;53.128;6.406;2022-10-22T02:42:41;21.50;64.10
66598;DHT22;57424;53.128;6.406;2022-10-22T02:45:07;21.50;64.10
66598;DHT22;57424;53.128;6.406;2022-10-22T02:47:33;21.50;64.10
66598;DHT22;57424;53.128;6.406;2022-10-22T02:49:58;21.50;64.10
66598;DHT22;57424;53.128;6.406;2022-10-22T02:52:24;21.50;64.10
66598;DHT22;57424;53.128;6.406;2022-10-22T02:54:50;21.50;64.10
66598;DHT22;57424;53.128;6.406;2022-10-22T02:57:15;21.50;64.00
66598;DHT22;57424;53.128;6.406;2022-10-22T02:59:41;21.40;64.00
66598;DHT22;57424;53.128;6.406;2022-10-22T03:02:06;21.40;64.00
66598;DHT22;57424;53.128;6.406;2022-10-22T03:04:32;21.40;63.90
66598;DHT22;57424;53.128;6.406;2022-10-22T03:06:57;21.50;64.00
66598;DHT22;57424;53.128;6.406;2022-10-22T03:09:23;21.40;63.90
66598;DHT22;57424;53.128;6.406;2022-10-22T03:11:49;21.50;64.00
66598;DHT22;57424;53.128;6.406;2022-10-22T03:14:14;21.50;64.00
66598;DHT22;57424;53.128;6.406;2022-10-22T03:16:40;21.40;64.20
66598;DHT22;57424;53.128;6.406;2022-10-22T03:19:06;21.40;63.90
66598;DHT22;57424;53.128;6.406;2022-10-22T03:21:54;21.40;63.90
66598;DHT22;57424;53.128;6.406;2022-10-22T03:24:24;21.50;63.90
66598;DHT22;57424;53.128;6.406;2022-10-22T03:26:51;21.40;63.80
66598;DHT22;57424;53.128;6.406;2022-10-22T03:29:18;21.40;63.80
66598;DHT22;57424;53.128;6.406;2022-10-22T03:31:45;21.40;63.80
66598;DHT22;57424;53.128;6.406;2022-10-22T03:34:11;21.40;63.80
66598;DHT22;57424;53.128;6.406;2022-10-22T03:36:38;21.40;63.80
66598;DHT22;57424;53.128;6.406;2022-10-22T03:39:05;21.50;63.80
66598;DHT22;57424;53.128;6.406;2022-10-22T03:41:31;21.40;63.80
66598;DHT22;57424;53.128;6.406;2022-10-22T03:43:59;21.40;63.80
66598;DHT22;57424;53.128;6.406;2022-10-22T03:46:26;21.40;63.80
66598;DHT22;57424;53.128;6.406;2022-10-22T03:48:51;21.40;63.70
66598;DHT22;57424;53.128;6.406;2022-10-22T03:51:17;21.40;63.70
66598;DHT22;57424;53.128;6.406;2022-10-22T03:53:42;21.40;63.80
66598;DHT22;57424;53.128;6.406;2022-10-22T03:56:09;21.40;63.70
66598;DHT22;57424;53.128;6.406;2022-10-22T03:58:35;21.40;63.70
66598;DHT22;57424;53.128;6.406;2022-10-22T04:01:09;21.40;63.70
66598;DHT22;57424;53.128;6.406;2022-10-22T04:03:35;21.40;63.70
66598;DHT22;57424;53.128;6.406;2022-10-22T04:06:06;21.40;63.70
66598;DHT22;57424;53.128;6.406;2022-10-22T04:08:32;21.40;63.70
66598;DHT22;57424;53.128;6.406;2022-10-22T04:10:58;21.40;63.70
66598;DHT22;57424;53.128;6.406;2022-10-22T04:13:23;21.40;63.70
66598;DHT22;57424;53.128;6.406;2022-10-22T04:15:49;21.40;63.70
66598;DHT22;57424;53.128;6.406;2022-10-22T04:18:17;21.40;63.60
66598;DHT22;57424;53.128;6.406;2022-10-22T04:20:43;21.40;63.60
66598;DHT22;57424;53.128;6.406;2022-10-22T04:23:08;21.40;63.60
66598;DHT22;57424;53.128;6.406;2022-10-22T04:25:34;21.40;63.60
66598;DHT22;57424;53.128;6.406;2022-10-22T04:27:59;21.40;63.60
66598;DHT22;57424;53.128;6.406;2022-10-22T04:30:25;21.40;63.60
66598;DHT22;57424;53.128;6.406;2022-10-22T04:32:51;21.40;63.60
66598;DHT22;57424;53.128;6.406;2022-10-22T04:35:17;21.40;63.60
66598;DHT22;57424;53.128;6.406;2022-10-22T04:37:42;21.40;63.60
66598;DHT22;57424;53.128;6.406;2022-10-22T04:40:08;21.40;63.60
66598;DHT22;57424;53.128;6.406;2022-10-22T04:42:34;21.40;63.60
66598;DHT22;57424;53.128;6.406;2022-10-22T04:45:00;21.30;63.50
66598;DHT22;57424;53.128;6.406;2022-10-22T04:47:25;21.40;63.60
66598;DHT22;57424;53.128;6.406;2022-10-22T04:49:51;21.30;63.50
66598;DHT22;57424;53.128;6.406;2022-10-22T04:52:16;21.30;63.50
66598;DHT22;57424;53.128;6.406;2022-10-22T04:54:42;21.40;63.50
66598;DHT22;57424;53.128;6.406;2022-10-22T04:57:07;21.30;63.40
66598;DHT22;57424;53.128;6.406;2022-10-22T04:59:33;21.30;63.40
66598;DHT22;57424;53.128;6.406;2022-10-22T05:01:58;21.30;63.40
66598;DHT22;57424;53.128;6.406;2022-10-22T05:04:24;21.30;63.50
66598;DHT22;57424;53.128;6.406;2022-10-22T05:06:49;21.30;63.40
66598;DHT22;57424;53.128;6.406;2022-10-22T05:09:17;21.40;63.50
66598;DHT22;57424;53.128;6.406;2022-10-22T05:11:44;21.40;63.40
66598;DHT22;57424;53.128;6.406;2022-10-22T05:14:14;21.30;63.40
66598;DHT22;57424;53.128;6.406;2022-10-22T05:16:39;21.30;63.60
66598;DHT22;57424;53.128;6.406;2022-10-22T05:19:06;21.40;63.70
66598;DHT22;57424;53.128;6.406;2022-10-22T05:21:32;21.40;63.70
66598;DHT22;57424;53.128;6.406;2022-10-22T05:23:58;21.40;63.70
66598;DHT22;57424;53.128;6.406;2022-10-22T05:26:27;21.50;63.80
66598;DHT22;57424;53.128;6.406;2022-10-22T05:28:53;21.40;63.70
66598;DHT22;57424;53.128;6.406;2022-10-22T05:31:19;21.40;63.70
66598;DHT22;57424;53.128;6.406;2022-10-22T05:33:45;21.50;63.80
66598;DHT22;57424;53.128;6.406;2022-10-22T05:36:14;21.50;63.70
66598;DHT22;57424;53.128;6.406;2022-10-22T05:38:40;21.50;63.80
66598;DHT22;57424;53.128;6.406;2022-10-22T05:41:16;21.50;63.80
66598;DHT22;57424;53.128;6.406;2022-10-22T05:43:42;21.50;63.90
66598;DHT22;57424;53.128;6.406;2022-10-22T05:46:19;21.60;64.10
66598;DHT22;57424;53.128;6.406;2022-10-22T05:48:56;21.60;64.40
66598;DHT22;57424;53.128;6.406;2022-10-22T05:51:22;21.60;64.40
66598;DHT22;57424;53.128;6.406;2022-10-22T05:54:07;21.60;64.40
66598;DHT22;57424;53.128;6.406;2022-10-22T05:56:35;21.70;64.30
66598;DHT22;57424;53.128;6.406;2022-10-22T05:59:01;21.70;64.30
66598;DHT22;57424;53.128;6.406;2022-10-22T06:01:29;21.70;64.20
66598;DHT22;57424;53.128;6.406;2022-10-22T06:03:55;21.70;64.10
66598;DHT22;57424;53.128;6.406;2022-10-22T06:08:53;21.70;64.00
66598;DHT22;57424;53.128;6.406;2022-10-22T06:11:21;21.70;63.90
66598;DHT22;57424;53.128;6.406;2022-10-22T06:13:47;21.80;64.00
66598;DHT22;57424;53.128;6.406;2022-10-22T06:16:13;21.80;64.00
66598;DHT22;57424;53.128;6.406;2022-10-22T06:18:39;21.80;63.90
66598;DHT22;57424;53.128;6.406;2022-10-22T06:21:07;21.80;64.00
66598;DHT22;57424;53.128;6.406;2022-10-22T06:23:33;21.80;63.90
66598;DHT22;57424;53.128;6.406;2022-10-22T06:25:59;21.80;63.90
66598;DHT22;57424;53.128;6.406;2022-10-22T06:28:25;21.90;64.00
66598;DHT22;57424;53.128;6.406;2022-10-22T06:30:51;21.80;64.00
66598;DHT22;57424;53.128;6.406;2022-10-22T06:33:16;21.80;64.20
66598;DHT22;57424;53.128;6.406;2022-10-22T06:35:42;21.80;64.20
66598;DHT22;57424;53.128;6.406;2022-10-22T06:38:09;21.90;64.20
66598;DHT22;57424;53.128;6.406;2022-10-22T06:40:35;21.90;64.20
66598;DHT22;57424;53.128;6.406;2022-10-22T06:43:00;21.90;64.20
66598;DHT22;57424;53.128;6.406;2022-10-22T06:45:26;21.90;64.30
66598;DHT22;57424;53.128;6.406;2022-10-22T06:47:52;21.90;64.30
66598;DHT22;57424;53.128;6.406;2022-10-22T06:50:18;21.90;64.20
66598;DHT22;57424;53.128;6.406;2022-10-22T06:52:44;21.90;64.20
66598;DHT22;57424;53.128;6.406;2022-10-22T06:55:10;21.90;64.10
66598;DHT22;57424;53.128;6.406;2022-10-22T06:57:35;21.90;64.10
66598;DHT22;57424;53.128;6.406;2022-10-22T07:00:04;21.90;64.10
66598;DHT22;57424;53.128;6.406;2022-10-22T07:02:29;21.90;64.10
66598;DHT22;57424;53.128;6.406;2022-10-22T07:04:55;21.90;64.20
66598;DHT22;57424;53.128;6.406;2022-10-22T07:07:20;21.90;64.20
66598;DHT22;57424;53.128;6.406;2022-10-22T07:09:46;21.90;64.20
66598;DHT22;57424;53.128;6.406;2022-10-22T07:12:14;21.90;64.20
66598;DHT22;57424;53.128;6.406;2022-10-22T07:14:39;21.90;64.20
66598;DHT22;57424;53.128;6.406;2022-10-22T07:17:05;21.90;64.20
66598;DHT22;57424;53.128;6.406;2022-10-22T07:19:30;21.90;64.20
66598;DHT22;57424;53.128;6.406;2022-10-22T07:21:56;21.90;64.20
66598;DHT22;57424;53.128;6.406;2022-10-22T07:24:22;21.90;64.20
66598;DHT22;57424;53.128;6.406;2022-10-22T07:26:47;21.90;64.20
66598;DHT22;57424;53.128;6.406;2022-10-22T07:29:13;21.90;64.20
66598;DHT22;57424;53.128;6.406;2022-10-22T07:31:40;21.90;64.20
66598;DHT22;57424;53.128;6.406;2022-10-22T07:34:06;21.90;64.30
66598;DHT22;57424;53.128;6.406;2022-10-22T07:36:31;21.90;64.20
66598;DHT22;57424;53.128;6.406;2022-10-22T07:38:58;21.90;64.30
66598;DHT22;57424;53.128;6.406;2022-10-22T07:41:25;21.90;64.30
66598;DHT22;57424;53.128;6.406;2022-10-22T07:43:51;21.90;64.30
66598;DHT22;57424;53.128;6.406;2022-10-22T07:46:16;21.90;64.30
66598;DHT22;57424;53.128;6.406;2022-10-22T07:48:42;21.90;64.30
66598;DHT22;57424;53.128;6.406;2022-10-22T07:51:08;21.90;64.40
66598;DHT22;57424;53.128;6.406;2022-10-22T07:53:33;21.90;64.40
66598;DHT22;57424;53.128;6.406;2022-10-22T07:55:59;21.90;64.40
66598;DHT22;57424;53.128;6.406;2022-10-22T07:58:25;21.90;64.40
66598;DHT22;57424;53.128;6.406;2022-10-22T08:00:54;21.90;64.50
66598;DHT22;57424;53.128;6.406;2022-10-22T08:03:20;21.90;64.40
66598;DHT22;57424;53.128;6.406;2022-10-22T08:05:46;21.90;64.40
66598;DHT22;57424;53.128;6.406;2022-10-22T08:08:12;21.90;64.40
66598;DHT22;57424;53.128;6.406;2022-10-22T08:10:38;22.00;64.40
66598;DHT22;57424;53.128;6.406;2022-10-22T08:13:04;21.90;64.40
66598;DHT22;57424;53.128;6.406;2022-10-22T08:15:30;21.90;64.40
66598;DHT22;57424;53.128;6.406;2022-10-22T08:17:56;21.90;64.50
66598;DHT22;57424;53.128;6.406;2022-10-22T08:20:21;21.90;64.50
66598;DHT22;57424;53.128;6.406;2022-10-22T08:22:47;21.90;64.50
66598;DHT22;57424;53.128;6.406;2022-10-22T08:25:13;21.90;64.60
66598;DHT22;57424;53.128;6.406;2022-10-22T08:27:39;21.90;64.60
66598;DHT22;57424;53.128;6.406;2022-10-22T08:30:06;22.00;64.70
66598;DHT22;57424;53.128;6.406;2022-10-22T08:32:32;22.00;64.70
66598;DHT22;57424;53.128;6.406;2022-10-22T08:34:57;22.00;64.80
66598;DHT22;57424;53.128;6.406;2022-10-22T08:37:23;22.00;64.80
66598;DHT22;57424;53.128;6.406;2022-10-22T08:39:48;22.00;64.90
66598;DHT22;57424;53.128;6.406;2022-10-22T08:50:11;22.10;65.10
66598;DHT22;57424;53.128;6.406;2022-10-22T08:52:39;22.10;65.10
66598;DHT22;57424;53.128;6.406;2022-10-22T08:55:12;22.10;65.10
66598;DHT22;57424;53.128;6.406;2022-10-22T09:06:31;22.10;65.30
66598;DHT22;57424;53.128;6.406;2022-10-22T09:08:58;22.10;65.30
66598;DHT22;57424;53.128;6.406;2022-10-22T09:11:34;22.10;65.30
66598;DHT22;57424;53.128;6.406;2022-10-22T09:14:00;22.20;65.50
66598;DHT22;57424;53.128;6.406;2022-10-22T09:19:32;22.20;65.50
66598;DHT22;57424;53.128;6.406;2022-10-22T09:24:45;22.30;65.60
66598;DHT22;57424;53.128;6.406;2022-10-22T09:27:13;22.30;65.70
66598;DHT22;57424;53.128;6.406;2022-10-22T09:29:39;22.20;65.60
66598;DHT22;57424;53.128;6.406;2022-10-22T09:32:05;22.30;65.70
66598;DHT22;57424;53.128;6.406;2022-10-22T09:34:31;22.30;65.70
66598;DHT22;57424;53.128;6.406;2022-10-22T09:36:59;22.30;65.70
66598;DHT22;57424;53.128;6.406;2022-10-22T09:39:37;22.30;65.60
66598;DHT22;57424;53.128;6.406;2022-10-22T09:42:03;22.30;65.70
66598;DHT22;57424;53.128;6.406;2022-10-22T09:44:32;22.30;65.80
66598;DHT22;57424;53.128;6.406;2022-10-22T09:46:58;22.30;65.70
66598;DHT22;57424;53.128;6.406;2022-10-22T09:49:23;22.30;65.70
66598;DHT22;57424;53.128;6.406;2022-10-22T09:51:58;22.30;65.70
66598;DHT22;57424;53.128;6.406;2022-10-22T09:57:03;22.30;65.70
66598;DHT22;57424;53.128;6.406;2022-10-22T09:59:31;22.30;65.70
66598;DHT22;57424;53.128;6.406;2022-10-22T10:02:01;22.30;65.60
66598;DHT22;57424;53.128;6.406;2022-10-22T10:04:26;22.30;65.60
66598;DHT22;57424;53.128;6.406;2022-10-22T10:06:54;22.30;65.70
66598;DHT22;57424;53.128;6.406;2022-10-22T10:09:23;22.30;65.70
66598;DHT22;57424;53.128;6.406;2022-10-22T10:17:37;22.30;65.60
66598;DHT22;57424;53.128;6.406;2022-10-22T10:23:14;22.30;65.50
66598;DHT22;57424;53.128;6.406;2022-10-22T10:28:24;22.30;65.50
66598;DHT22;57424;53.128;6.406;2022-10-22T10:33:46;22.30;65.50
66598;DHT22;57424;53.128;6.406;2022-10-22T10:39:05;22.30;65.50
66598;DHT22;57424;53.128;6.406;2022-10-22T10:42:24;22.30;65.50
66598;DHT22;57424;53.128;6.406;2022-10-22T10:47:20;22.30;65.50
66598;DHT22;57424;53.128;6.406;2022-10-22T10:49:54;22.30;65.50
66598;DHT22;57424;53.128;6.406;2022-10-22T10:52:36;22.30;65.50
66598;DHT22;57424;53.128;6.406;2022-10-22T10:55:36;22.30;65.50
66598;DHT22;57424;53.128;6.406;2022-10-22T11:00:54;22.30;65.50
66598;DHT22;57424;53.128;6.406;2022-10-22T11:03:46;22.30;65.50
66598;DHT22;57424;53.128;6.406;2022-10-22T11:06:18;22.30;65.50
66598;DHT22;57424;53.128;6.406;2022-10-22T11:08:51;22.30;65.50
66598;DHT22;57424;53.128;6.406;2022-10-22T11:11:54;22.30;65.50
66598;DHT22;57424;53.128;6.406;2022-10-22T11:14:31;22.30;65.40
66598;DHT22;57424;53.128;6.406;2022-10-22T11:17:04;22.20;65.40
66598;DHT22;57424;53.128;6.406;2022-10-22T11:19:42;22.30;65.50
66598;DHT22;57424;53.128;6.406;2022-10-22T11:22:20;22.30;65.40
66598;DHT22;57424;53.128;6.406;2022-10-22T11:24:55;22.30;65.40
66598;DHT22;57424;53.128;6.406;2022-10-22T11:27:36;22.30;65.40
66598;DHT22;57424;53.128;6.406;2022-10-22T11:30:12;22.30;65.30
66598;DHT22;57424;53.128;6.406;2022-10-22T11:32:40;22.30;65.30
66598;DHT22;57424;53.128;6.406;2022-10-22T11:35:13;22.20;65.20
66598;DHT22;57424;53.128;6.406;2022-10-22T11:37:41;22.20;65.20
66598;DHT22;57424;53.128;6.406;2022-10-22T11:42:54;22.20;65.20
66598;DHT22;57424;53.128;6.406;2022-10-22T11:51:27;22.20;65.30
66598;DHT22;57424;53.128;6.406;2022-10-22T12:00:54;22.20;65.20
66598;DHT22;57424;53.128;6.406;2022-10-22T12:11:13;22.20;65.20
66598;DHT22;57424;53.128;6.406;2022-10-22T12:16:39;22.10;65.10
66598;DHT22;57424;53.128;6.406;2022-10-22T12:19:23;22.20;65.20
66598;DHT22;57424;53.128;6.406;2022-10-22T12:24:36;22.10;65.10
66598;DHT22;57424;53.128;6.406;2022-10-22T12:27:02;22.10;65.10
66598;DHT22;57424;53.128;6.406;2022-10-22T12:29:30;22.20;65.20
66598;DHT22;57424;53.128;6.406;2022-10-22T12:31:56;22.20;65.10
66598;DHT22;57424;53.128;6.406;2022-10-22T12:34:26;22.20;65.10
66598;DHT22;57424;53.128;6.406;2022-10-22T12:36:53;22.10;65.10
66598;DHT22;57424;53.128;6.406;2022-10-22T12:39:22;22.20;65.10
66598;DHT22;57424;53.128;6.406;2022-10-22T12:41:51;22.10;65.10
66598;DHT22;57424;53.128;6.406;2022-10-22T12:44:18;22.10;65.10
66598;DHT22;57424;53.128;6.406;2022-10-22T12:46:45;22.10;65.10
66598;DHT22;57424;53.128;6.406;2022-10-22T12:49:23;22.10;65.10
66598;DHT22;57424;53.128;6.406;2022-10-22T12:51:49;22.10;65.00
66598;DHT22;57424;53.128;6.406;2022-10-22T12:54:25;22.10;65.00
66598;DHT22;57424;53.128;6.406;2022-10-22T12:56:52;22.10;65.00
66598;DHT22;57424;53.128;6.406;2022-10-22T12:59:25;22.10;65.10
66598;DHT22;57424;53.128;6.406;2022-10-22T13:01:51;22.10;65.00
66598;DHT22;57424;53.128;6.406;2022-10-22T13:09:42;22.10;65.00
66598;DHT22;57424;53.128;6.406;2022-10-22T13:12:09;22.10;65.00
66598;DHT22;57424;53.128;6.406;2022-10-22T13:14:44;22.10;65.00
66598;DHT22;57424;53.128;6.406;2022-10-22T13:22:26;22.10;64.90
66598;DHT22;57424;53.128;6.406;2022-10-22T13:24:52;22.10;64.80
66598;DHT22;57424;53.128;6.406;2022-10-22T13:27:18;22.10;64.80
66598;DHT22;57424;53.128;6.406;2022-10-22T13:29:44;22.10;64.90
66598;DHT22;57424;53.128;6.406;2022-10-22T13:32:29;22.10;64.80
66598;DHT22;57424;53.128;6.406;2022-10-22T13:35:00;22.10;64.80
66598;DHT22;57424;53.128;6.406;2022-10-22T13:37:27;22.10;64.80
66598;DHT22;57424;53.128;6.406;2022-10-22T13:39:54;22.10;64.80
66598;DHT22;57424;53.128;6.406;2022-10-22T13:42:19;22.10;64.80
66598;DHT22;57424;53.128;6.406;2022-10-22T13:44:45;22.10;64.80
66598;DHT22;57424;53.128;6.406;2022-10-22T13:47:28;22.10;64.80
66598;DHT22;57424;53.128;6.406;2022-10-22T13:49:59;22.10;64.80
66598;DHT22;57424;53.128;6.406;2022-10-22T13:52:39;22.10;64.80
66598;DHT22;57424;53.128;6.406;2022-10-22T13:55:20;22.10;64.80
66598;DHT22;57424;53.128;6.406;2022-10-22T13:57:47;22.10;64.80
66598;DHT22;57424;53.128;6.406;2022-10-22T14:00:18;22.00;64.80
66598;DHT22;57424;53.128;6.406;2022-10-22T14:02:46;22.00;64.80
66598;DHT22;57424;53.128;6.406;2022-10-22T14:05:12;22.00;64.80
66598;DHT22;57424;53.128;6.406;2022-10-22T14:07:38;22.00;64.80
66598;DHT22;57424;53.128;6.406;2022-10-22T14:10:22;22.00;64.80
66598;DHT22;57424;53.128;6.406;2022-10-22T14:12:48;22.00;64.80
66598;DHT22;57424;53.128;6.406;2022-10-22T14:15:16;22.00;64.80
66598;DHT22;57424;53.128;6.406;2022-10-22T14:17:57;22.00;64.90
66598;DHT22;57424;53.128;6.406;2022-10-22T14:20:28;22.00;64.80
66598;DHT22;57424;53.128;6.406;2022-10-22T14:22:54;22.00;64.90
66598;DHT22;57424;53.128;6.406;2022-10-22T14:25:22;22.00;64.90
66598;DHT22;57424;53.128;6.406;2022-10-22T14:27:48;22.00;64.90
66598;DHT22;57424;53.128;6.406;2022-10-22T14:30:16;22.00;64.90
66598;DHT22;57424;53.128;6.406;2022-10-22T14:32:42;22.00;64.90
66598;DHT22;57424;53.128;6.406;2022-10-22T14:35:11;22.00;64.80
66598;DHT22;57424;53.128;6.406;2022-10-22T14:37:37;22.00;64.80
66598;DHT22;57424;53.128;6.406;2022-10-22T14:40:03;22.00;64.80
66598;DHT22;57424;53.128;6.406;2022-10-22T14:42:29;22.00;64.80
66598;DHT22;57424;53.128;6.406;2022-10-22T14:44:55;22.00;64.80
66598;DHT22;57424;53.128;6.406;2022-10-22T14:47:20;22.00;64.80
66598;DHT22;57424;53.128;6.406;2022-10-22T14:49:46;22.00;64.80
66598;DHT22;57424;53.128;6.406;2022-10-22T14:52:11;22.00;64.80
66598;DHT22;57424;53.128;6.406;2022-10-22T14:54:37;22.00;64.80
66598;DHT22;57424;53.128;6.406;2022-10-22T14:57:03;22.00;64.80
66598;DHT22;57424;53.128;6.406;2022-10-22T14:59:31;22.00;64.90
66598;DHT22;57424;53.128;6.406;2022-10-22T15:01:56;22.00;64.90
66598;DHT22;57424;53.128;6.406;2022-10-22T15:04:22;22.00;64.90
66598;DHT22;57424;53.128;6.406;2022-10-22T15:06:50;22.10;64.90
66598;DHT22;57424;53.128;6.406;2022-10-22T15:09:15;22.00;64.80
66598;DHT22;57424;53.128;6.406;2022-10-22T15:11:41;22.10;64.80
66598;DHT22;57424;53.128;6.406;2022-10-22T15:14:07;22.10;64.90
66598;DHT22;57424;53.128;6.406;2022-10-22T15:16:33;22.10;64.90
66598;DHT22;57424;53.128;6.406;2022-10-22T15:18:59;22.10;64.90
66598;DHT22;57424;53.128;6.406;2022-10-22T15:21:25;22.10;65.00
66598;DHT22;57424;53.128;6.406;2022-10-22T15:23:51;22.10;65.00
66598;DHT22;57424;53.128;6.406;2022-10-22T15:26:16;22.10;64.90
66598;DHT22;57424;53.128;6.406;2022-10-22T15:28:42;22.10;64.90
66598;DHT22;57424;53.128;6.406;2022-10-22T15:31:10;22.10;64.90
66598;DHT22;57424;53.128;6.406;2022-10-22T15:33:36;22.10;64.90
66598;DHT22;57424;53.128;6.406;2022-10-22T15:36:13;22.20;65.00
66598;DHT22;57424;53.128;6.406;2022-10-22T15:38:39;22.20;65.00
66598;DHT22;57424;53.128;6.406;2022-10-22T15:41:06;22.20;65.00
66598;DHT22;57424;53.128;6.406;2022-10-22T15:43:33;22.20;65.00
66598;DHT22;57424;53.128;6.406;2022-10-22T15:46:09;22.10;64.90
66598;DHT22;57424;53.128;6.406;2022-10-22T15:48:35;22.10;64.90
66598;DHT22;57424;53.128;6.406;2022-10-22T15:51:07;22.10;64.90
66598;DHT22;57424;53.128;6.406;2022-10-22T15:53:32;22.20;65.00
66598;DHT22;57424;53.128;6.406;2022-10-22T15:55:58;22.10;65.00
66598;DHT22;57424;53.128;6.406;2022-10-22T15:58:23;22.20;65.00
66598;DHT22;57424;53.128;6.406;2022-10-22T16:00:49;22.20;65.00
66598;DHT22;57424;53.128;6.406;2022-10-22T16:03:15;22.20;65.10
66598;DHT22;57424;53.128;6.406;2022-10-22T16:05:40;22.20;65.20
66598;DHT22;57424;53.128;6.406;2022-10-22T16:08:13;22.20;65.20
66598;DHT22;57424;53.128;6.406;2022-10-22T16:10:44;22.20;65.20
66598;DHT22;57424;53.128;6.406;2022-10-22T16:13:09;22.20;65.20
66598;DHT22;57424;53.128;6.406;2022-10-22T16:15:35;22.20;65.20
66598;DHT22;57424;53.128;6.406;2022-10-22T16:18:00;22.20;65.20
66598;DHT22;57424;53.128;6.406;2022-10-22T16:20:26;22.20;65.10
66598;DHT22;57424;53.128;6.406;2022-10-22T16:22:51;22.20;65.10
66598;DHT22;57424;53.128;6.406;2022-10-22T16:25:17;22.20;65.20
66598;DHT22;57424;53.128;6.406;2022-10-22T16:27:42;22.20;65.20
66598;DHT22;57424;53.128;6.406;2022-10-22T16:30:08;22.10;65.10
66598;DHT22;57424;53.128;6.406;2022-10-22T16:32:34;22.20;65.20
66598;DHT22;57424;53.128;6.406;2022-10-22T16:34:59;22.20;65.20
66598;DHT22;57424;53.128;6.406;2022-10-22T16:37:25;22.10;65.20
66598;DHT22;57424;53.128;6.406;2022-10-22T16:39:50;22.10;65.30
66598;DHT22;57424;53.128;6.406;2022-10-22T16:42:16;22.10;65.30
66598;DHT22;57424;53.128;6.406;2022-10-22T16:44:41;22.10;65.30
66598;DHT22;57424;53.128;6.406;2022-10-22T16:47:07;22.10;65.30
66598;DHT22;57424;53.128;6.406;2022-10-22T16:49:32;22.10;65.40
66598;DHT22;57424;53.128;6.406;2022-10-22T16:51:58;22.10;65.40
66598;DHT22;57424;53.128;6.406;2022-10-22T16:54:24;22.10;65.50
66598;DHT22;57424;53.128;6.406;2022-10-22T16:56:49;22.10;65.60
66598;DHT22;57424;53.128;6.406;2022-10-22T16:59:15;22.10;65.70
66598;DHT22;57424;53.128;6.406;2022-10-22T17:01:40;22.10;65.70
66598;DHT22;57424;53.128;6.406;2022-10-22T17:04:06;22.20;65.70
66598;DHT22;57424;53.128;6.406;2022-10-22T17:06:32;22.20;65.70
66598;DHT22;57424;53.128;6.406;2022-10-22T17:08:57;22.20;65.70
66598;DHT22;57424;53.128;6.406;2022-10-22T17:11:23;22.20;65.60
66598;DHT22;57424;53.128;6.406;2022-10-22T17:13:51;22.30;65.60
66598;DHT22;57424;53.128;6.406;2022-10-22T17:16:17;22.20;65.50
66598;DHT22;57424;53.128;6.406;2022-10-22T17:18:45;22.20;65.30
66598;DHT22;57424;53.128;6.406;2022-10-22T17:21:12;22.20;65.40
66598;DHT22;57424;53.128;6.406;2022-10-22T17:23:38;22.20;65.30
66598;DHT22;57424;53.128;6.406;2022-10-22T17:26:07;22.20;65.30
66598;DHT22;57424;53.128;6.406;2022-10-22T17:28:34;22.20;65.30
66598;DHT22;57424;53.128;6.406;2022-10-22T17:31:37;22.20;65.20
66598;DHT22;57424;53.128;6.406;2022-10-22T17:33:57;22.20;65.20
66598;DHT22;57424;53.128;6.406;2022-10-22T17:36:24;22.10;65.10